Time;durP1;ratioP1;P1;durP2;ratioP2;P2;SDS_P1;SDS_P2;PMS_P1;PMS_P2;Temp;Humidity;BMP_temperature;BMP_pressure;BME280_temperature;BME280_humidity;BME280_pressure;Samples;Min_cycle;Max_cycle;Signal;HPM_P1;HPM_P2
2023/11/08 00:01:58;;;;;;;1999.90;999.90;;;9.80;99.90;;;;;;5073302;28;20223;-69
2023/11/08 00:04:23;;;;;;;1999.90;999.90;;;9.80;99.90;;;;;;5073732;28;20198;-70
2023/11/08 00:06:49;;;;;;;1999.90;999.90;;;9.90;99.90;;;;;;5074003;28;20661;-69
2023/11/08 00:09:14;;;;;;;1999.90;999.90;;;9.90;99.90;;;;;;5074087;28;20247;-69
2023/11/08 00:11:41;;;;;;;1999.90;999.90;;;10.00;99.90;;;;;;5073964;28;20177;-69
2023/11/08 00:14:08;;;;;;;1999.90;999.90;;;9.80;99.90;;;;;;5073588;28;20217;-69
2023/11/08 00:16:34;;;;;;;1999.90;999.90;;;9.90;99.90;;;;;;5073814;28;20486;-69
2023/11/08 00:19:00;;;;;;;1999.90;999.90;;;9.90;99.90;;;;;;5073721;28;20404;-69
2023/11/08 00:21:28;;;;;;;1999.90;999.90;;;9.90;99.90;;;;;;5073913;28;20460;-69
2023/11/08 00:23:54;;;;;;;1999.90;999.90;;;9.80;99.90;;;;;;5073749;28;20446;-69
2023/11/08 00:26:20;;;;;;;1999.90;999.90;;;9.80;99.90;;;;;;5073701;28;20939;-69
2023/11/08 00:28:46;;;;;;;1999.90;999.90;;;9.90;99.90;;;;;;5073578;28;20245;-69
2023/11/08 00:31:12;;;;;;;1999.90;999.90;;;9.80;99.90;;;;;;5073620;28;20220;-69
2023/11/08 00:33:37;;;;;;;1999.90;999.90;;;9.80;99.90;;;;;;5073279;28;20501;-69
2023/11/08 00:36:04;;;;;;;1999.90;999.90;;;9.90;99.90;;;;;;5073516;28;20204;-69
2023/11/08 00:38:29;;;;;;;1999.90;999.90;;;9.90;99.90;;;;;;5073359;28;20228;-69
2023/11/08 00:40:55;;;;;;;1999.90;999.90;;;10.10;99.90;;;;;;5073399;28;20446;-69
2023/11/08 00:43:20;;;;;;;1999.90;999.90;;;9.90;99.90;;;;;;5073262;28;20182;-69
2023/11/08 00:45:46;;;;;;;1999.90;999.90;;;9.90;99.90;;;;;;5073338;28;20181;-69
2023/11/08 00:48:12;;;;;;;1999.90;999.90;;;10.10;99.90;;;;;;5073137;28;20242;-69
2023/11/08 00:50:37;;;;;;;1999.90;999.90;;;10.00;99.90;;;;;;5073262;28;20223;-69
2023/11/08 00:53:03;;;;;;;1999.90;999.90;;;9.90;99.90;;;;;;5073079;28;20426;-69
2023/11/08 00:55:29;;;;;;;1999.90;999.90;;;10.10;99.90;;;;;;5072988;28;20209;-69
2023/11/08 00:57:55;;;;;;;1999.90;999.90;;;10.00;99.90;;;;;;5073202;28;20409;-69
2023/11/08 01:00:21;;;;;;;1999.90;999.90;;;10.20;99.90;;;;;;5072961;28;20909;-69
2023/11/08 01:02:47;;;;;;;1999.90;999.90;;;10.00;99.90;;;;;;5072758;28;20415;-69
2023/11/08 01:05:14;;;;;;;1999.90;999.90;;;9.90;99.90;;;;;;5072899;28;20830;-69
2023/11/08 01:07:41;;;;;;;1999.90;999.90;;;9.90;99.90;;;;;;5073142;28;20403;-68
2023/11/08 01:10:07;;;;;;;1999.90;999.90;;;10.00;99.90;;;;;;5072760;28;20409;-69
2023/11/08 01:12:33;;;;;;;1999.90;999.90;;;10.10;99.90;;;;;;5072822;28;20479;-69
2023/11/08 01:14:59;;;;;;;1999.90;999.90;;;10.10;99.90;;;;;;5072048;28;20470;-69
2023/11/08 01:17:25;;;;;;;1999.90;999.90;;;10.00;99.90;;;;;;5072709;28;20535;-69
2023/11/08 01:19:51;;;;;;;1999.90;999.90;;;10.00;99.90;;;;;;5072767;28;20435;-69
2023/11/08 01:22:16;;;;;;;1999.90;999.90;;;10.00;99.90;;;;;;5072442;28;20205;-69
2023/11/08 01:24:42;;;;;;;1999.90;999.90;;;10.10;99.90;;;;;;5072597;28;20180;-69
2023/11/08 01:27:08;;;;;;;1999.90;999.90;;;9.90;99.90;;;;;;5072625;28;20600;-69
2023/11/08 01:29:35;;;;;;;1999.90;999.90;;;9.90;99.90;;;;;;5072533;28;20919;-69
2023/11/08 01:32:01;;;;;;;1999.90;999.90;;;9.90;99.90;;;;;;5072458;28;20402;-69
2023/11/08 01:34:27;;;;;;;1999.90;999.90;;;10.00;99.90;;;;;;5072356;28;20536;-69
2023/11/08 01:36:53;;;;;;;1999.90;999.90;;;10.10;99.90;;;;;;5072586;28;20461;-68
2023/11/08 01:39:18;;;;;;;1999.90;999.90;;;9.90;99.90;;;;;;5072449;28;20208;-69
2023/11/08 01:41:45;;;;;;;1999.90;999.90;;;9.90;99.90;;;;;;5072271;28;20439;-68
2023/11/08 01:44:11;;;;;;;1999.90;999.90;;;10.10;99.90;;;;;;5072155;28;20175;-69
2023/11/08 01:46:38;;;;;;;1999.90;999.90;;;10.00;99.90;;;;;;5072569;28;20945;-69
2023/11/08 01:49:04;;;;;;;1999.90;999.90;;;9.90;99.90;;;;;;5072562;28;21142;-69
2023/11/08 01:51:30;;;;;;;1999.90;999.90;;;10.00;99.90;;;;;;5072368;28;20807;-69
2023/11/08 01:53:57;;;;;;;1999.90;999.90;;;10.00;99.90;;;;;;5072270;28;20416;-68
2023/11/08 01:56:23;;;;;;;1999.90;999.90;;;10.00;99.90;;;;;;5072429;28;20467;-69
2023/11/08 01:58:54;;;;;;;1999.90;999.90;;;10.00;99.90;;;;;;5072070;28;20859;-69
2023/11/08 02:01:21;;;;;;;1999.90;999.90;;;9.90;99.90;;;;;;5072167;28;20207;-68
2023/11/08 02:03:47;;;;;;;1999.90;999.90;;;9.90;99.90;;;;;;5072094;28;20407;-69
2023/11/08 02:06:13;;;;;;;1999.90;999.90;;;10.10;99.90;;;;;;5072678;28;20426;-69
2023/11/08 02:08:40;;;;;;;1999.90;999.90;;;9.90;99.90;;;;;;5072058;28;20248;-69
2023/11/08 02:11:07;;;;;;;1999.90;999.90;;;9.90;99.90;;;;;;5072274;28;20273;-68
2023/11/08 02:13:33;;;;;;;1999.90;999.90;;;9.90;99.90;;;;;;5071598;28;20412;-69
2023/11/08 02:15:59;;;;;;;1999.90;999.90;;;10.00;99.90;;;;;;5071678;28;20432;-69
2023/11/08 02:18:25;;;;;;;1999.90;999.90;;;10.20;99.90;;;;;;5071913;28;20414;-70
2023/11/08 02:20:52;;;;;;;1999.90;999.90;;;9.90;99.90;;;;;;5071822;28;20819;-69
2023/11/08 02:23:18;;;;;;;1999.90;999.90;;;9.90;99.90;;;;;;5071564;28;20411;-69
2023/11/08 02:25:45;;;;;;;1999.90;999.90;;;9.80;99.90;;;;;;5075001;28;20487;-69
2023/11/08 02:28:11;;;;;;;1999.90;999.90;;;9.90;99.90;;;;;;5078295;28;20250;-69
2023/11/08 02:30:36;;;;;;;1999.90;999.90;;;9.80;99.90;;;;;;5078380;28;20463;-70
2023/11/08 02:33:02;;;;;;;1999.90;999.90;;;9.80;99.90;;;;;;5078124;28;20428;-70
2023/11/08 02:35:28;;;;;;;1999.90;999.90;;;9.90;99.90;;;;;;5078401;28;20215;-69
2023/11/08 02:37:53;;;;;;;1999.90;999.90;;;9.70;99.90;;;;;;5078198;28;20673;-69
2023/11/08 02:40:19;;;;;;;1999.90;999.90;;;9.80;99.90;;;;;;5078308;28;20170;-68
2023/11/08 02:42:45;;;;;;;1999.90;999.90;;;9.80;99.90;;;;;;5077914;28;20665;-70
2023/11/08 02:45:12;;;;;;;1999.90;999.90;;;9.90;99.90;;;;;;5078139;28;20169;-69
2023/11/08 02:47:38;;;;;;;1999.90;999.90;;;9.90;99.90;;;;;;5078306;28;20447;-69
2023/11/08 02:50:05;;;;;;;1999.90;999.90;;;9.80;99.90;;;;;;5078202;28;20437;-69
2023/11/08 02:52:32;;;;;;;1999.90;999.90;;;9.80;99.90;;;;;;5077850;28;20454;-70
2023/11/08 02:54:58;;;;;;;1999.90;999.90;;;9.70;99.90;;;;;;5078032;28;20407;-69
2023/11/08 02:57:23;;;;;;;1999.90;999.90;;;9.80;99.90;;;;;;5078030;28;20419;-70
2023/11/08 02:59:50;;;;;;;1999.90;999.90;;;9.70;99.90;;;;;;5078320;28;20399;-70
2023/11/08 03:02:15;;;;;;;1999.90;999.90;;;9.70;99.90;;;;;;5077783;28;20749;-70
2023/11/08 03:04:41;;;;;;;1999.90;999.90;;;9.70;99.90;;;;;;5078083;28;20419;-70
2023/11/08 03:07:07;;;;;;;1999.90;999.90;;;9.70;99.90;;;;;;5078013;28;20560;-69
2023/11/08 03:09:33;;;;;;;1999.90;999.90;;;9.70;99.90;;;;;;5078008;28;20486;-70
2023/11/08 03:11:59;;;;;;;1999.90;999.90;;;9.70;99.90;;;;;;5077915;28;20223;-69
2023/11/08 03:14:25;;;;;;;1999.90;999.90;;;9.60;99.90;;;;;;5077779;28;20170;-69
2023/11/08 03:16:51;;;;;;;1999.90;999.90;;;9.60;99.90;;;;;;5077922;28;20196;-69
2023/11/08 03:19:17;;;;;;;1999.90;999.90;;;9.60;99.90;;;;;;5077922;28;20410;-69
2023/11/08 03:21:44;;;;;;;1999.90;999.90;;;9.70;99.90;;;;;;5077791;28;20541;-69
2023/11/08 03:24:09;;;;;;;1999.90;999.90;;;9.50;99.90;;;;;;5077752;28;20414;-70
2023/11/08 03:26:35;;;;;;;1999.90;999.90;;;9.50;99.90;;;;;;5077828;28;20414;-69
2023/11/08 03:29:01;;;;;;;1999.90;999.90;;;9.40;99.90;;;;;;5077774;28;20159;-69
2023/11/08 03:31:29;;;;;;;1999.90;999.90;;;9.40;99.90;;;;;;5077811;28;20638;-69
2023/11/08 03:33:57;;;;;;;1999.90;999.90;;;9.40;99.90;;;;;;5077639;28;20548;-69
2023/11/08 03:36:26;;;;;;;1999.90;999.90;;;9.30;99.90;;;;;;5076633;28;20427;-69
2023/11/08 03:38:51;;;;;;;1999.90;999.90;;;9.20;99.90;;;;;;5074102;28;20502;-69
2023/11/08 03:41:17;;;;;;;1999.90;999.90;;;9.20;99.90;;;;;;5074450;28;20530;-70
2023/11/08 03:43:43;;;;;;;1999.90;999.90;;;9.40;99.90;;;;;;5074316;28;20208;-69
2023/11/08 03:46:09;;;;;;;1999.90;999.90;;;9.20;99.90;;;;;;5074394;28;20944;-69
2023/11/08 03:48:36;;;;;;;1999.90;999.90;;;9.20;99.90;;;;;;5074410;28;20572;-68
2023/11/08 03:51:03;;;;;;;1999.90;999.90;;;9.20;99.90;;;;;;5074428;28;20804;-69
2023/11/08 03:53:28;;;;;;;1999.90;999.90;;;9.30;99.90;;;;;;5074129;28;20404;-69
2023/11/08 03:55:54;;;;;;;1999.90;999.90;;;9.20;99.90;;;;;;5074094;28;20472;-69
2023/11/08 03:58:21;;;;;;;1999.90;999.90;;;9.10;99.90;;;;;;5056435;28;20209;-69
2023/11/08 04:00:47;;;;;;;1999.90;999.90;;;9.20;99.90;;;;;;5074113;28;20956;-69
2023/11/08 04:03:12;;;;;;;1999.90;999.90;;;9.20;99.90;;;;;;5073846;28;20188;-69
2023/11/08 04:09:00;;;;;;;1999.90;999.90;;;9.20;99.90;;;;;;5073746;28;20175;-69
2023/11/08 04:11:25;;;;;;;1999.90;999.90;;;9.20;99.90;;;;;;5073978;28;20411;-70
2023/11/08 04:13:51;;;;;;;1999.90;999.90;;;9.30;99.90;;;;;;5073715;28;20229;-69
2023/11/08 04:16:16;;;;;;;1999.90;999.90;;;9.20;99.90;;;;;;5074212;28;20194;-70
2023/11/08 04:18:42;;;;;;;1999.90;999.90;;;9.10;99.90;;;;;;5073844;28;20174;-69
2023/11/08 04:21:07;;;;;;;1999.90;999.90;;;9.10;99.90;;;;;;5073708;28;20704;-69
2023/11/08 04:23:33;;;;;;;1999.90;999.90;;;9.10;99.90;;;;;;5073552;28;20169;-69
2023/11/08 04:25:58;;;;;;;1999.90;999.90;;;9.10;99.90;;;;;;5073664;28;20243;-70
2023/11/08 04:28:24;;;;;;;1999.90;999.90;;;9.10;99.90;;;;;;5073669;28;20247;-69
2023/11/08 04:30:50;;;;;;;1999.90;999.90;;;9.10;99.90;;;;;;5071552;28;20189;-69
2023/11/08 04:33:15;;;;;;;1999.90;999.90;;;9.10;99.90;;;;;;5071486;28;20192;-69
2023/11/08 04:35:41;;;;;;;1999.90;999.90;;;9.10;99.90;;;;;;5073435;28;20748;-70
2023/11/08 04:38:07;;;;;;;1999.90;999.90;;;9.00;99.90;;;;;;5073477;28;20163;-69
2023/11/08 04:40:32;;;;;;;1999.90;999.90;;;9.00;99.90;;;;;;5073337;28;20221;-70
2023/11/08 04:42:58;;;;;;;1999.90;999.90;;;8.90;99.90;;;;;;5073119;28;20889;-69
2023/11/08 04:45:24;;;;;;;1999.90;999.90;;;8.80;99.90;;;;;;5073571;28;20213;-69
2023/11/08 04:47:49;;;;;;;1999.90;999.90;;;8.90;99.90;;;;;;5073240;28;20193;-68
2023/11/08 04:50:15;;;;;;;1999.90;999.90;;;8.90;99.90;;;;;;5073120;28;20164;-68
2023/11/08 04:52:40;;;;;;;1999.90;999.90;;;9.00;99.90;;;;;;5073081;28;20173;-69
2023/11/08 04:55:06;;;;;;;1999.90;999.90;;;8.80;99.90;;;;;;5073047;28;20169;-69
2023/11/08 04:57:32;;;;;;;1999.90;999.90;;;9.00;99.90;;;;;;5073147;28;20182;-69
2023/11/08 04:59:57;;;;;;;1999.90;999.90;;;9.00;99.90;;;;;;5073446;28;20639;-69
2023/11/08 05:02:23;;;;;;;1999.90;999.90;;;9.00;99.90;;;;;;5072877;28;20516;-68
2023/11/08 05:04:49;;;;;;;1999.90;999.90;;;9.00;99.90;;;;;;5073146;28;20176;-69
2023/11/08 05:07:18;;;;;;;1999.90;999.90;;;9.10;99.90;;;;;;5072896;28;20261;-69
2023/11/08 05:09:44;;;;;;;1999.90;999.90;;;9.00;99.90;;;;;;5072968;28;20410;-69
2023/11/08 05:12:11;;;;;;;1999.90;999.90;;;9.00;99.90;;;;;;5072589;28;20416;-69
2023/11/08 05:14:37;;;;;;;1999.90;999.90;;;9.10;99.90;;;;;;5073094;28;20662;-69
2023/11/08 05:17:04;;;;;;;1999.90;999.90;;;8.90;99.90;;;;;;5072718;28;20438;-69
2023/11/08 05:19:30;;;;;;;1999.90;999.90;;;9.00;99.90;;;;;;5072736;28;20173;-68
2023/11/08 05:21:55;;;;;;;1999.90;999.90;;;8.80;99.90;;;;;;5072607;28;20459;-69
2023/11/08 05:24:22;;;;;;;1999.90;999.90;;;9.10;99.90;;;;;;5072846;28;21164;-69
2023/11/08 05:26:49;;;;;;;1999.90;999.90;;;9.00;99.90;;;;;;5072862;28;20275;-69
2023/11/08 05:29:14;;;;;;;1999.90;999.90;;;9.00;99.90;;;;;;5072574;28;20443;-69
2023/11/08 05:31:40;;;;;;;1999.90;999.90;;;8.90;99.90;;;;;;5072788;28;20413;-69
2023/11/08 05:34:07;;;;;;;1999.90;999.90;;;9.00;99.90;;;;;;5072784;28;20185;-68
2023/11/08 05:36:32;;;;;;;1999.90;999.90;;;8.90;99.90;;;;;;5072928;28;20228;-69
2023/11/08 05:38:58;;;;;;;1999.90;999.90;;;8.90;99.90;;;;;;5072804;28;20447;-69
2023/11/08 05:41:24;;;;;;;1999.90;999.90;;;8.90;99.90;;;;;;5072345;28;20200;-69
2023/11/08 05:43:53;;;;;;;1999.90;999.90;;;8.90;99.90;;;;;;5072405;28;20176;-68
2023/11/08 05:46:19;;;;;;;1999.90;999.90;;;8.90;99.90;;;;;;5072428;28;20223;-69
2023/11/08 05:48:45;;;;;;;1999.90;999.90;;;8.90;99.90;;;;;;5072620;28;20410;-69
2023/11/08 05:51:11;;;;;;;1999.90;999.90;;;8.90;99.90;;;;;;5072451;28;20208;-69
2023/11/08 05:53:37;;;;;;;1999.90;999.90;;;8.90;99.90;;;;;;5072229;28;20787;-69
2023/11/08 05:56:03;;;;;;;1999.90;999.90;;;9.00;99.90;;;;;;5072054;28;20292;-68
2023/11/08 05:58:30;;;;;;;1999.90;999.90;;;9.00;99.90;;;;;;5072319;28;20417;-69
2023/11/08 06:00:57;;;;;;;1999.90;999.90;;;9.00;99.90;;;;;;5071822;28;20449;-69
2023/11/08 06:03:24;;;;;;;1999.90;999.90;;;9.10;99.90;;;;;;5071814;28;20904;-69
2023/11/08 06:05:50;;;;;;;1999.90;999.90;;;9.10;99.90;;;;;;5072172;28;21132;-68
2023/11/08 06:08:16;;;;;;;1999.90;999.90;;;9.10;99.90;;;;;;5072285;28;20508;-68
2023/11/08 06:10:41;;;;;;;1999.90;999.90;;;9.10;99.90;;;;;;5072276;28;20558;-69
2023/11/08 06:13:09;;;;;;;1999.90;999.90;;;9.10;99.90;;;;;;5071806;28;20610;-69
2023/11/08 06:15:35;;;;;;;1999.90;999.90;;;9.20;99.90;;;;;;5071942;28;20199;-69
2023/11/08 06:18:01;;;;;;;1999.90;999.90;;;9.20;99.90;;;;;;5071907;28;20993;-68
2023/11/08 06:20:26;;;;;;;1999.90;999.90;;;9.20;99.90;;;;;;5072274;28;20175;-69
2023/11/08 06:22:52;;;;;;;1999.90;999.90;;;9.30;99.90;;;;;;5071750;28;20449;-68
2023/11/08 06:25:17;;;;;;;1999.90;999.90;;;9.30;99.90;;;;;;5072069;28;20173;-68
2023/11/08 06:27:43;;;;;;;1999.90;999.90;;;9.30;99.90;;;;;;5072012;28;20164;-69
2023/11/08 06:30:11;;;;;;;1999.90;999.90;;;9.30;99.90;;;;;;5071874;28;20168;-69
2023/11/08 06:32:36;;;;;;;1999.90;999.90;;;9.40;99.90;;;;;;5069334;28;20212;-70
2023/11/08 06:35:03;;;;;;;1999.90;999.90;;;9.30;99.90;;;;;;5069926;28;20448;-69
2023/11/08 06:37:30;;;;;;;1999.90;999.90;;;9.40;99.90;;;;;;5067298;28;20211;-69
2023/11/08 06:39:55;;;;;;;1999.90;999.90;;;9.40;99.90;;;;;;5071729;28;20423;-69
2023/11/08 06:42:22;;;;;;;1999.90;999.90;;;9.40;99.90;;;;;;5071405;28;20551;-69
2023/11/08 06:44:47;;;;;;;1999.90;999.90;;;9.40;99.90;;;;;;5071577;28;20177;-69
2023/11/08 06:47:13;;;;;;;1999.90;999.90;;;9.50;99.90;;;;;;5071421;28;20511;-70
2023/11/08 06:49:39;;;;;;;1999.90;999.90;;;9.40;99.90;;;;;;5071402;28;20190;-70
2023/11/08 06:52:05;;;;;;;1999.90;999.90;;;9.50;99.90;;;;;;5071345;28;20412;-69
2023/11/08 06:54:32;;;;;;;1999.90;999.90;;;9.50;99.90;;;;;;5071504;28;20180;-69
2023/11/08 06:56:57;;;;;;;1999.90;999.90;;;9.60;99.90;;;;;;5071359;28;20220;-70
2023/11/08 06:59:23;;;;;;;1999.90;999.90;;;9.60;99.90;;;;;;5071394;28;20413;-70
2023/11/08 07:01:48;;;;;;;1999.90;999.90;;;9.60;99.90;;;;;;5071319;28;20199;-69
2023/11/08 07:04:14;;;;;;;1999.90;999.90;;;9.60;99.90;;;;;;5071269;28;20171;-69
2023/11/08 07:06:40;;;;;;;1999.90;999.90;;;9.60;99.90;;;;;;5071364;28;20199;-70
2023/11/08 07:09:07;;;;;;;1999.90;999.90;;;9.60;99.90;;;;;;5071517;28;20639;-68
2023/11/08 07:11:32;;;;;;;1999.90;999.90;;;9.60;99.90;;;;;;5071431;28;20211;-70
2023/11/08 07:13:58;;;;;;;1999.90;999.90;;;9.70;99.90;;;;;;5074680;28;20921;-70
2023/11/08 07:16:24;;;;;;;1999.90;999.90;;;9.70;99.90;;;;;;5074990;28;20223;-70
2023/11/08 07:18:50;;;;;;;1999.90;999.90;;;9.70;99.90;;;;;;5070077;28;20225;-69
2023/11/08 07:21:19;;;;;;;1999.90;999.90;;;9.70;99.90;;;;;;5074083;28;20540;-69
2023/11/08 07:23:45;;;;;;;1999.90;999.90;;;9.80;99.90;;;;;;5070821;28;20184;-69
2023/11/08 07:26:13;;;;;;;1999.90;999.90;;;9.70;99.90;;;;;;5074709;28;20443;-70
2023/11/08 07:28:40;;;;;;;1999.90;999.90;;;9.80;99.90;;;;;;5074804;28;20181;-69
2023/11/08 07:31:08;;;;;;;1999.90;999.90;;;9.80;99.90;;;;;;5074775;28;20442;-69
2023/11/08 07:33:37;;;;;;;1999.90;999.90;;;9.90;99.90;;;;;;5074429;28;20454;-70
2023/11/08 07:36:04;;;;;;;1999.90;999.90;;;9.90;99.90;;;;;;5066205;28;20440;-69
2023/11/08 07:38:30;;;;;;;1999.90;999.90;;;9.90;99.90;;;;;;5074548;28;20922;-69
2023/11/08 07:40:58;;;;;;;1999.90;999.90;;;9.90;99.90;;;;;;5074660;28;20439;-69
2023/11/08 07:43:24;;;;;;;1999.90;999.90;;;9.90;99.90;;;;;;5074381;28;20413;-69
2023/11/08 07:45:49;;;;;;;1999.90;999.90;;;9.80;99.90;;;;;;5074373;28;20923;-69
2023/11/08 07:48:15;;;;;;;1999.90;999.90;;;9.90;99.90;;;;;;5074418;28;20173;-69
2023/11/08 07:50:41;;;;;;;1999.90;999.90;;;10.00;99.90;;;;;;5074220;28;20186;-69
2023/11/08 07:53:07;;;;;;;1999.90;999.90;;;10.00;99.90;;;;;;5074110;28;20185;-69
2023/11/08 07:55:33;;;;;;;1999.90;999.90;;;9.80;99.90;;;;;;5074260;28;20217;-69
2023/11/08 07:58:00;;;;;;;1999.90;999.90;;;9.90;99.90;;;;;;5074179;28;20406;-69
2023/11/08 08:00:26;;;;;;;1999.90;999.90;;;9.90;99.90;;;;;;5074065;28;20174;-69
2023/11/08 08:02:52;;;;;;;1999.90;999.90;;;10.00;99.90;;;;;;5073770;28;20547;-69
2023/11/08 08:05:18;;;;;;;1999.90;999.90;;;10.10;99.90;;;;;;5073956;28;20491;-69
2023/11/08 08:07:43;;;;;;;1999.90;999.90;;;10.00;99.90;;;;;;5074210;28;20181;-69
2023/11/08 08:10:12;;;;;;;1999.90;999.90;;;10.20;99.90;;;;;;5074127;28;20614;-69
2023/11/08 08:12:38;;;;;;;1999.90;999.90;;;10.10;99.90;;;;;;5074365;28;20621;-69
2023/11/08 08:15:05;;;;;;;1999.90;999.90;;;;;;;;;;5074248;28;20949;-69
2023/11/08 08:17:34;;;;;;;1999.90;999.90;;;10.30;99.90;;;;;;5074096;28;20443;-70
2023/11/08 08:20:01;;;;;;;1999.90;999.90;;;10.30;99.90;;;;;;5074288;28;20416;-69
2023/11/08 08:22:26;;;;;;;1999.90;999.90;;;10.30;99.90;;;;;;5073715;28;20460;-69
2023/11/08 08:24:52;;;;;;;1999.90;999.90;;;10.50;99.90;;;;;;5073616;28;20434;-69
2023/11/08 08:27:18;;;;;;;1999.90;999.90;;;10.50;99.90;;;;;;5074029;28;20194;-69
2023/11/08 08:29:44;;;;;;;1999.90;999.90;;;10.60;99.90;;;;;;5073798;28;20184;-69
2023/11/08 08:32:09;;;;;;;1999.90;999.90;;;10.80;99.90;;;;;;5074100;28;20408;-69
2023/11/08 08:34:35;;;;;;;1999.90;999.90;;;10.80;99.90;;;;;;5073809;28;20196;-69
2023/11/08 08:37:01;;;;;;;1999.90;999.90;;;11.00;99.90;;;;;;5073785;28;20677;-69
2023/11/08 08:39:27;;;;;;;1999.90;999.90;;;10.90;99.90;;;;;;5073739;28;20254;-69
2023/11/08 08:41:54;;;;;;;1999.90;999.90;;;10.90;99.90;;;;;;5073503;28;20205;-68
2023/11/08 08:44:20;;;;;;;1999.90;999.90;;;11.00;99.90;;;;;;5073520;28;20436;-69
2023/11/08 08:46:45;;;;;;;1999.90;999.90;;;10.90;99.90;;;;;;5073287;28;20448;-69
2023/11/08 08:49:12;;;;;;;1999.90;999.90;;;10.80;99.90;;;;;;5073318;28;20706;-70
2023/11/08 08:51:38;;;;;;;1999.90;999.90;;;10.80;99.90;;;;;;5073584;28;20270;-69
2023/11/08 08:54:06;;;;;;;1999.90;999.90;;;10.70;99.90;;;;;;5073263;28;20422;-68
2023/11/08 08:56:33;;;;;;;1999.90;999.90;;;10.80;99.90;;;;;;5073472;28;20452;-69
2023/11/08 08:58:59;;;;;;;1999.90;999.90;;;10.80;99.90;;;;;;5073171;28;20926;-69
2023/11/08 09:01:25;;;;;;;1999.90;999.90;;;10.80;99.90;;;;;;5073290;28;20581;-69
2023/11/08 09:03:52;;;;;;;1999.90;999.90;;;10.80;99.90;;;;;;5073250;28;20404;-69
2023/11/08 09:06:21;;;;;;;1999.90;999.90;;;10.80;99.90;;;;;;5073073;28;20424;-68
2023/11/08 09:08:47;;;;;;;1999.90;999.90;;;10.90;99.90;;;;;;5073170;28;20423;-69
2023/11/08 09:11:13;;;;;;;1999.90;999.90;;;11.00;99.90;;;;;;5073182;28;20471;-68
2023/11/08 09:13:39;;;;;;;1999.90;999.90;;;10.90;99.90;;;;;;5072939;28;20405;-69
2023/11/08 09:16:07;;;;;;;1999.90;999.90;;;10.90;99.90;;;;;;5072981;28;20515;-69
2023/11/08 09:18:34;;;;;;;1999.90;999.90;;;10.90;99.90;;;;;;5073261;28;20183;-69
2023/11/08 09:21:00;;;;;;;1999.90;999.90;;;10.90;99.90;;;;;;5072862;28;20957;-68
2023/11/08 09:23:28;;;;;;;1999.90;999.90;;;11.00;99.90;;;;;;5072521;28;20499;-69
2023/11/08 09:25:54;;;;;;;1999.90;999.90;;;11.10;99.90;;;;;;5072693;28;20471;-69
2023/11/08 09:28:19;;;;;;;1999.90;999.90;;;11.20;99.90;;;;;;5073153;28;20408;-68
2023/11/08 09:30:45;;;;;;;1999.90;999.90;;;11.20;99.90;;;;;;5072792;28;20443;-69
2023/11/08 09:33:12;;;;;;;1999.90;999.90;;;11.30;99.90;;;;;;5072619;28;20174;-69
2023/11/08 09:35:38;;;;;;;1999.90;999.90;;;11.40;99.90;;;;;;5071673;28;20443;-68
2023/11/08 09:38:03;;;;;;;1999.90;999.90;;;11.60;99.90;;;;;;5072519;28;20406;-68
2023/11/08 09:40:29;;;;;;;1999.90;999.90;;;11.80;99.90;;;;;;5072485;28;20421;-69
2023/11/08 09:42:56;;;;;;;1999.90;999.90;;;11.90;99.90;;;;;;5072039;28;20565;-69
2023/11/08 09:45:27;;;;;;;1999.90;999.90;;;12.20;99.90;;;;;;5072270;28;20402;-69
2023/11/08 09:47:53;;;;;;;1999.90;999.90;;;12.20;99.90;;;;;;5072483;28;20753;-69
2023/11/08 09:50:22;;;;;;;1999.90;999.90;;;12.40;99.90;;;;;;5072539;28;20410;-69
2023/11/08 09:52:48;;;;;;;1999.90;999.90;;;12.40;99.90;;;;;;5072307;28;20650;-68
2023/11/08 09:55:14;;;;;;;1999.90;999.90;;;12.50;99.90;;;;;;5072027;28;20425;-69
2023/11/08 09:57:41;;;;;;;1999.90;999.90;;;12.50;99.90;;;;;;5072145;28;20177;-69
2023/11/08 10:00:07;;;;;;;1999.90;999.90;;;12.50;99.90;;;;;;5072361;28;20171;-69
2023/11/08 10:02:37;;;;;;;1999.90;999.90;;;12.40;99.90;;;;;;5071748;28;20459;-70
2023/11/08 10:05:04;;;;;;;1999.90;999.90;;;12.50;99.90;;;;;;5072271;28;20417;-69
2023/11/08 10:07:30;;;;;;;1999.90;999.90;;;12.50;99.90;;;;;;5072146;28;20441;-69
2023/11/08 10:09:56;;;;;;;1999.90;999.90;;;12.50;99.90;;;;;;5071949;28;20768;-69
2023/11/08 10:12:21;;;;;;;1999.90;999.90;;;12.60;99.90;;;;;;5071669;28;20195;-70
2023/11/08 10:14:58;;;;;;;1999.90;999.90;;;12.60;99.80;;;;;;5072113;28;20649;-69
2023/11/08 10:17:38;;;;;;;1999.90;999.90;;;12.60;98.90;;;;;;5072547;28;20588;-69
2023/11/08 10:20:08;;;;;;;1999.90;999.90;;;12.60;99.10;;;;;;5071972;28;20410;-69
2023/11/08 10:22:34;;;;;;;1999.90;999.90;;;12.70;98.60;;;;;;5071481;28;20891;-69
2023/11/08 10:25:03;;;;;;;1999.90;999.90;;;12.70;98.00;;;;;;5072054;28;20406;-69
2023/11/08 10:27:31;;;;;;;1999.90;999.90;;;12.60;97.90;;;;;;5071525;28;20438;-69
2023/11/08 10:30:20;;;;;;;1999.90;999.90;;;12.70;97.70;;;;;;5071962;28;20398;-69
2023/11/08 10:32:47;;;;;;;1999.90;999.90;;;12.70;98.40;;;;;;5071565;28;20784;-69
2023/11/08 10:35:21;;;;;;;1999.90;999.90;;;12.60;99.90;;;;;;5071713;28;20424;-68
2023/11/08 10:37:48;;;;;;;1999.90;999.90;;;12.60;96.60;;;;;;5071978;28;20975;-68
2023/11/08 10:40:15;;;;;;;1999.90;999.90;;;12.70;96.20;;;;;;5071860;28;20875;-69
2023/11/08 10:42:49;;;;;;;1999.90;999.90;;;12.70;97.30;;;;;;5071927;28;20711;-68
2023/11/08 10:45:15;;;;;;;1999.90;999.90;;;12.40;99.90;;;;;;5071748;28;20402;-69
2023/11/08 10:47:41;;;;;;;1999.90;999.90;;;12.60;94.70;;;;;;5075041;28;20428;-69
2023/11/08 10:50:11;;;;;;;1999.90;999.90;;;12.50;94.50;;;;;;5075780;28;20401;-69
2023/11/08 10:52:38;;;;;;;1999.90;999.90;;;12.60;94.30;;;;;;5075730;28;20616;-69
2023/11/08 10:55:06;;;;;;;1999.90;999.90;;;12.50;94.10;;;;;;5075562;28;20504;-68
2023/11/08 10:57:33;;;;;;;1999.90;999.90;;;12.40;91.80;;;;;;5075707;28;20402;-69
2023/11/08 11:00:04;;;;;;;1999.90;999.90;;;12.40;93.30;;;;;;5075464;28;20445;-69
2023/11/08 11:02:40;;;;;;;1999.90;999.90;;;12.30;92.30;;;;;;5075303;28;20483;-69
2023/11/08 11:05:09;;;;;;;1999.90;999.90;;;12.50;98.30;;;;;;5075505;28;20401;-69
2023/11/08 11:07:42;;;;;;;1999.90;999.90;;;12.20;91.00;;;;;;5075381;28;20413;-68
2023/11/08 11:10:09;;;;;;;1999.90;999.90;;;12.40;92.10;;;;;;5075389;28;20422;-69
2023/11/08 11:12:54;;;;;;;1999.90;999.90;;;12.60;91.40;;;;;;5075000;28;20535;-69
2023/11/08 11:15:28;;;;;;;1999.90;999.90;;;12.50;98.00;;;;;;5075427;28;20539;-69
2023/11/08 11:17:55;;;;;;;1999.90;999.90;;;12.70;90.20;;;;;;5075376;28;20406;-69
2023/11/08 11:20:23;;;;;;;1999.90;999.90;;;12.70;86.30;;;;;;5075240;28;20413;-69
2023/11/08 11:22:48;;;;;;;1999.90;999.90;;;12.80;87.40;;;;;;5074736;28;20464;-69
2023/11/08 11:25:45;;;;;;;1999.90;999.90;;;13.60;94.90;;;;;;5075016;28;20406;-70
2023/11/08 11:28:10;;;;;;;1999.90;999.90;;;13.20;83.90;;;;;;5075235;28;20216;-69
2023/11/08 11:30:36;;;;;;;1999.90;999.90;;;13.30;80.90;;;;;;5075797;28;20522;-69
2023/11/08 11:33:04;;;;;;;1999.90;999.90;;;13.50;77.10;;;;;;5074897;28;20190;-69
2023/11/08 11:35:30;;;;;;;1999.90;999.90;;;13.40;75.40;;;;;;5074809;28;20357;-69
2023/11/08 11:38:10;;;;;;;1999.90;999.90;;;13.40;75.40;;;;;;5074915;28;20496;-69
2023/11/08 11:40:48;;;;;;;1999.90;999.90;;;13.60;75.70;;;;;;5074867;28;20168;-69
2023/11/08 11:43:38;;;;;;;1999.90;999.90;;;13.70;75.50;;;;;;5074652;28;20396;-69
2023/11/08 11:46:05;;;;;;;1999.90;999.90;;;13.80;73.80;;;;;;5074411;28;20411;-69
2023/11/08 11:48:35;;;;;;;1999.90;999.90;;;13.80;69.00;;;;;;5074953;28;20824;-70
2023/11/08 11:51:02;;;;;;;1999.90;999.90;;;13.70;69.70;;;;;;5074527;28;20954;-69
2023/11/08 11:53:29;;;;;;;1999.90;999.90;;;13.90;71.70;;;;;;5074371;28;20387;-69
2023/11/08 11:56:07;;;;;;;1999.90;999.90;;;14.00;70.70;;;;;;5074536;28;20549;-69
2023/11/08 11:58:33;;;;;;;1999.90;999.90;;;14.20;69.20;;;;;;5073450;28;20399;-70
2023/11/08 12:01:00;;;;;;;1999.90;999.90;;;14.40;70.40;;;;;;5074524;28;20483;-69
2023/11/08 12:03:27;;;;;;;1999.90;999.90;;;14.50;62.70;;;;;;5074392;28;20400;-69
2023/11/08 12:05:56;;;;;;;1999.90;999.90;;;14.30;63.40;;;;;;5074467;28;20416;-68